Port Star — 3EAS6 — position and weather

sailwx.info

Track history (hours):
 
Tides and Currents Weather Stations Pressure Air Temp Water Temp Dewpoint Dewpoint Depression Visibility Wind Speed Wind Dir Waves Ship Positions

Port Star

Last reported at 2014-Oct-31 21:33 UTC. Time now 2014-Oct-31 21:38 UTC.
Position N 40°46' E 028°59'.

Length 175.5 m; beam 29.4 m.

Type: Ship. MMSI: 356105000.

Date/timePositionNaut miles runAvg speedWind from/ knotsBaromVisibWave heightAir tempDewpointWater temp
2014-Oct-31 21:33N 40°46' E 028°59'1 1.1
2014-Oct-31 20:33N 40°47' E 028°59'1 1.0
2014-Oct-31 19:33N 40°48' E 028°59'4 4.2
2014-Oct-31 18:33N 40°44' E 028°56'2 1.8
2014-Oct-31 17:33N 40°43' E 028°55'1 1.3
2014-Oct-31 16:32N 40°44' E 028°54'1 1.2
2014-Oct-31 15:33N 40°45' E 028°54'1 1.2
2014-Oct-31 14:33N 40°47' E 028°53'3 3.4
2014-Oct-31 13:33N 40°43' E 028°55'1 0.9
2014-Oct-31 12:33N 40°43' E 028°54'1 1.3
2014-Oct-31 11:33N 40°44' E 028°53'1 1.4
2014-Oct-31 10:33N 40°45' E 028°53'8 7.8
2014-Oct-31 09:33N 40°50' E 028°45'15210.7
2014-Oct-30 19:22N 39°44' E 025°46'105 9.6
2014-Oct-30 08:26N 38°10' E 024°44'2312.0
2014-Oct-30 06:33N 37°49' E 024°34'1312.9
2014-Oct-30 05:33N 37°37' E 024°29'1312.8
2014-Oct-30 04:33N 37°28' E 024°17'1313.0
2014-Oct-30 03:33N 37°19' E 024°05'1313.3
2014-Oct-30 02:33N 37°09' E 023°54'1513.3
2014-Oct-30 01:26N 36°59' E 023°41'  
Track history (hours):
 
Tides and Currents Weather Stations Pressure Air Temp Water Temp Dewpoint Dewpoint Depression Visibility Wind Speed Wind Dir Waves Ship Positions

Port Star

Last reported at 2014-Oct-31 21:33 UTC. Time now 2014-Oct-31 21:38 UTC.
Position N 40°46' E 028°59'.

Length 175.5 m; beam 29.4 m.

Type: Ship. MMSI: 356105000.

Date/timePositionNaut miles runAvg speedWind from/ knotsBaromVisibWave heightAir tempDewpointWater temp
2014-Oct-31 21:33N 40°46' E 028°59'1 1.1
2014-Oct-31 20:33N 40°47' E 028°59'1 1.0
2014-Oct-31 19:33N 40°48' E 028°59'4 4.2
2014-Oct-31 18:33N 40°44' E 028°56'2 1.8
2014-Oct-31 17:33N 40°43' E 028°55'1 1.3
2014-Oct-31 16:32N 40°44' E 028°54'1 1.2
2014-Oct-31 15:33N 40°45' E 028°54'1 1.2
2014-Oct-31 14:33N 40°47' E 028°53'3 3.4
2014-Oct-31 13:33N 40°43' E 028°55'1 0.9
2014-Oct-31 12:33N 40°43' E 028°54'1 1.3
2014-Oct-31 11:33N 40°44' E 028°53'1 1.4
2014-Oct-31 10:33N 40°45' E 028°53'8 7.8
2014-Oct-31 09:33N 40°50' E 028°45'15210.7
2014-Oct-30 19:22N 39°44' E 025°46'105 9.6
2014-Oct-30 08:26N 38°10' E 024°44'2312.0
2014-Oct-30 06:33N 37°49' E 024°34'1312.9
2014-Oct-30 05:33N 37°37' E 024°29'1312.8
2014-Oct-30 04:33N 37°28' E 024°17'1313.0
2014-Oct-30 03:33N 37°19' E 024°05'1313.3
2014-Oct-30 02:33N 37°09' E 023°54'1513.3
2014-Oct-30 01:26N 36°59' E 023°41'  

Dump ship's entire track history